Time;durP1;ratioP1;P1;durP2;ratioP2;P2;SDS_P1;SDS_P2;PMS_P1;PMS_P2;Temp;Humidity;BMP_temperature;BMP_pressure;BME280_temperature;BME280_humidity;BME280_pressure;Samples;Min_cycle;Max_cycle;Signal;HPM_P1;HPM_P2
2022/04/28 00:00:26;;;;;;;8.65;6.30;;;11.90;67.40;;;;;;5115415;28;20080;-72
2022/04/28 00:02:53;;;;;;;7.18;6.00;;;11.90;67.30;;;;;;5116267;28;20023;-73
2022/04/28 00:05:19;;;;;;;10.05;6.45;;;11.90;67.20;;;;;;5115627;28;20111;-72
2022/04/28 00:07:46;;;;;;;11.43;6.35;;;11.80;67.50;;;;;;5115993;28;20035;-71
2022/04/28 00:10:12;;;;;;;7.90;6.53;;;11.80;67.50;;;;;;5115238;28;20432;-71
2022/04/28 00:12:39;;;;;;;9.75;6.25;;;11.80;67.80;;;;;;5115708;27;20077;-71
2022/04/28 00:15:05;;;;;;;10.13;6.90;;;11.70;67.40;;;;;;5115734;28;20075;-72
2022/04/28 00:17:31;;;;;;;9.57;6.57;;;11.70;67.50;;;;;;5115157;28;20024;-72
2022/04/28 00:19:57;;;;;;;10.30;6.07;;;11.70;67.80;;;;;;5115345;28;20045;-72
2022/04/28 00:22:24;;;;;;;10.18;6.53;;;11.70;68.30;;;;;;5114738;28;20053;-72
2022/04/28 00:24:50;;;;;;;10.63;6.88;;;11.60;68.70;;;;;;5115499;28;20027;-72
2022/04/28 00:27:16;;;;;;;7.63;6.32;;;11.60;69.30;;;;;;5114979;28;20073;-71
2022/04/28 00:29:41;;;;;;;7.25;6.20;;;11.60;69.90;;;;;;5115644;28;20333;-72
2022/04/28 00:32:07;;;;;;;10.88;6.53;;;11.50;69.90;;;;;;5115569;28;20024;-72
2022/04/28 00:34:33;;;;;;;8.70;6.43;;;11.50;70.10;;;;;;5114594;28;20020;-72
2022/04/28 00:36:59;;;;;;;8.90;6.75;;;11.40;70.00;;;;;;5114859;28;20385;-73
2022/04/28 00:39:24;;;;;;;8.00;6.25;;;11.40;70.30;;;;;;5114777;27;20032;-72
2022/04/28 00:41:50;;;;;;;8.90;6.13;;;11.40;70.40;;;;;;5115371;28;20024;-73
2022/04/28 00:44:16;;;;;;;9.35;7.25;;;11.30;70.50;;;;;;5114779;28;20035;-73
2022/04/28 00:46:44;;;;;;;7.88;6.90;;;11.30;70.80;;;;;;5114645;28;20055;-72
2022/04/28 00:51:55;;;;;;;9.65;6.95;;;11.30;70.90;;;;;;5115004;28;20046;-72
2022/04/28 00:54:21;;;;;;;11.23;7.20;;;11.30;70.80;;;;;;5114262;28;20024;-71
2022/04/28 00:56:47;;;;;;;10.40;7.30;;;11.20;70.80;;;;;;5114823;28;20035;-72
2022/04/28 00:59:14;;;;;;;10.45;7.05;;;11.20;71.20;;;;;;5114625;28;20028;-73
2022/04/28 01:01:39;;;;;;;8.02;6.68;;;11.20;71.10;;;;;;5113798;28;20447;-73
2022/04/28 01:04:05;;;;;;;7.75;6.18;;;11.20;71.50;;;;;;5114577;28;20118;-72
2022/04/28 01:06:31;;;;;;;9.05;6.40;;;11.10;71.70;;;;;;5113640;28;20044;-72
2022/04/28 01:08:57;;;;;;;8.73;6.45;;;11.10;72.20;;;;;;5114485;28;20110;-73
2022/04/28 01:11:24;;;;;;;10.77;6.53;;;11.10;72.70;;;;;;5113989;28;20036;-72
2022/04/28 01:13:49;;;;;;;8.52;6.43;;;11.00;73.40;;;;;;5114160;28;20043;-73
2022/04/28 01:16:16;;;;;;;7.90;6.60;;;11.00;74.00;;;;;;5114802;28;20019;-71
2022/04/28 01:18:41;;;;;;;9.93;6.88;;;11.00;74.10;;;;;;5113699;28;20028;-72
2022/04/28 01:21:08;;;;;;;8.20;6.78;;;10.90;74.00;;;;;;5114430;28;20036;-73
2022/04/28 01:23:35;;;;;;;9.63;7.28;;;10.90;74.50;;;;;;5113769;28;20031;-72
2022/04/28 01:26:01;;;;;;;9.05;6.30;;;10.90;74.70;;;;;;5114401;28;20027;-72
2022/04/28 01:28:29;;;;;;;10.73;6.50;;;10.90;75.10;;;;;;5113712;27;20046;-72
2022/04/28 01:30:55;;;;;;;9.45;6.90;;;10.80;75.70;;;;;;5114345;28;20536;-72
2022/04/28 01:33:20;;;;;;;9.82;7.00;;;10.80;76.10;;;;;;5113550;28;20059;-71
2022/04/28 01:35:46;;;;;;;9.25;6.80;;;10.80;76.70;;;;;;5114385;27;20027;-71
2022/04/28 01:38:12;;;;;;;8.68;7.00;;;10.70;77.10;;;;;;5114112;28;20055;-72
2022/04/28 01:40:38;;;;;;;12.00;6.88;;;10.70;77.70;;;;;;5112200;28;20039;-71
2022/04/28 01:43:04;;;;;;;11.93;7.13;;;10.70;77.90;;;;;;5113791;28;20035;-72
2022/04/28 01:45:30;;;;;;;10.00;7.43;;;10.60;78.20;;;;;;5113439;28;20042;-71
2022/04/28 01:47:55;;;;;;;9.88;6.95;;;10.60;78.20;;;;;;5113839;28;20057;-72
2022/04/28 01:50:21;;;;;;;9.57;6.88;;;10.60;78.50;;;;;;5112283;28;20049;-71
2022/04/28 01:55:31;;;;;;;9.00;7.18;;;10.50;80.00;;;;;;5113046;28;20514;-72
2022/04/28 01:57:58;;;;;;;11.90;7.43;;;10.40;81.10;;;;;;5113832;28;20019;-71
2022/04/28 02:00:23;;;;;;;10.70;7.90;;;10.40;82.00;;;;;;5113039;28;20115;-71
2022/04/28 02:02:49;;;;;;;7.28;6.53;;;10.30;82.90;;;;;;5113667;28;20111;-72
2022/04/28 02:05:15;;;;;;;9.27;6.97;;;10.30;83.60;;;;;;5113832;28;20101;-72
2022/04/28 02:07:41;;;;;;;11.43;7.95;;;10.30;84.00;;;;;;5112953;28;20031;-73
2022/04/28 02:10:07;;;;;;;10.50;7.32;;;10.20;84.70;;;;;;5113508;28;20486;-71
2022/04/28 02:12:33;;;;;;;9.15;7.05;;;10.20;85.50;;;;;;5112939;28;20107;-71
2022/04/28 02:14:59;;;;;;;9.75;7.20;;;10.20;86.10;;;;;;5113573;28;20491;-72
2022/04/28 02:17:27;;;;;;;9.93;7.85;;;10.10;86.80;;;;;;5112630;28;20054;-71
2022/04/28 02:19:54;;;;;;;10.20;6.60;;;10.00;87.90;;;;;;5113385;28;20031;-71
2022/04/28 02:22:20;;;;;;;11.77;7.50;;;10.00;87.90;;;;;;5113360;27;20043;-72
2022/04/28 02:24:50;;;;;;;10.15;7.47;;;9.90;88.90;;;;;;5112654;28;20478;-72
2022/04/28 02:27:16;;;;;;;9.18;7.18;;;9.90;89.50;;;;;;5113256;28;20361;-72
2022/04/28 02:29:42;;;;;;;9.65;6.90;;;9.90;90.10;;;;;;5112657;28;20334;-72
2022/04/28 02:32:08;;;;;;;9.15;7.18;;;9.80;90.40;;;;;;5113221;28;20069;-72
2022/04/28 02:34:34;;;;;;;10.50;7.18;;;9.80;90.50;;;;;;5112846;28;20504;-71
2022/04/28 02:37:01;;;;;;;8.40;7.03;;;9.70;90.60;;;;;;5112985;28;20027;-73
2022/04/28 02:39:26;;;;;;;11.18;7.57;;;9.70;90.60;;;;;;5111428;28;20400;-72
2022/04/28 02:41:53;;;;;;;8.75;7.20;;;9.70;90.90;;;;;;5111569;28;20020;-73
2022/04/28 02:44:19;;;;;;;9.60;6.88;;;9.60;91.10;;;;;;5112900;28;20024;-73
2022/04/28 02:46:45;;;;;;;12.93;7.93;;;9.60;91.40;;;;;;5112209;28;20042;-72
2022/04/28 02:49:15;;;;;;;9.63;7.15;;;9.60;91.60;;;;;;5112795;28;20031;-72
2022/04/28 02:51:41;;;;;;;12.52;7.72;;;9.50;91.90;;;;;;5112094;28;20426;-72
2022/04/28 02:54:08;;;;;;;8.18;6.97;;;9.50;92.10;;;;;;5112766;28;20024;-72
2022/04/28 02:56:34;;;;;;;11.25;7.47;;;9.50;92.30;;;;;;5112183;28;20358;-72
2022/04/28 02:59:00;;;;;;;12.88;7.75;;;9.40;92.50;;;;;;5112677;28;20521;-72
2022/04/28 03:01:26;;;;;;;10.80;7.45;;;9.40;92.70;;;;;;5111814;28;20028;-72
2022/04/28 03:03:53;;;;;;;10.75;7.50;;;9.40;93.00;;;;;;5112663;28;20026;-72
2022/04/28 03:11:48;;;;;;;9.88;7.93;;;9.30;93.60;;;;;;5111915;28;20400;-72
2022/04/28 03:14:15;;;;;;;10.07;7.85;;;9.30;93.80;;;;;;5112229;28;20039;-72
2022/04/28 03:16:41;;;;;;;9.55;7.82;;;9.30;94.10;;;;;;5111756;28;20159;-72
2022/04/28 03:19:07;;;;;;;10.45;8.38;;;9.30;94.10;;;;;;5112094;28;20138;-72
2022/04/28 03:21:33;;;;;;;10.18;8.48;;;9.20;94.20;;;;;;5111709;28;20024;-71
2022/04/28 03:23:59;;;;;;;9.15;7.45;;;9.20;94.50;;;;;;5112340;28;20107;-73
2022/04/28 03:26:25;;;;;;;10.48;8.23;;;9.20;94.60;;;;;;5111890;28;20361;-71
2022/04/28 03:28:51;;;;;;;10.60;8.05;;;9.20;94.80;;;;;;5112042;28;20031;-73
2022/04/28 03:31:16;;;;;;;9.85;8.00;;;9.10;95.10;;;;;;5112311;28;20031;-72
2022/04/28 03:33:42;;;;;;;10.90;8.10;;;9.10;95.30;;;;;;5111627;28;20020;-71
2022/04/28 03:38:52;;;;;;;10.98;8.63;;;9.20;95.60;;;;;;5111596;28;20034;-72
2022/04/28 03:41:18;;;;;;;11.38;8.05;;;9.10;95.70;;;;;;5112196;28;20019;-74
2022/04/28 03:43:47;;;;;;;10.23;8.73;;;9.20;95.80;;;;;;5111609;28;20149;-72
2022/04/28 03:46:15;;;;;;;10.32;8.05;;;9.20;95.90;;;;;;5112091;28;20031;-72
2022/04/28 03:48:41;;;;;;;11.43;8.88;;;9.20;95.80;;;;;;5111170;28;20472;-73
2022/04/28 03:51:06;;;;;;;10.60;8.90;;;9.20;95.80;;;;;;5112031;28;20024;-73
2022/04/28 03:53:32;;;;;;;11.60;8.50;;;9.20;95.80;;;;;;5111787;28;20032;-72
2022/04/28 03:55:58;;;;;;;14.95;9.00;;;9.20;95.80;;;;;;5112063;28;20085;-72
2022/04/28 03:58:27;;;;;;;11.00;8.75;;;9.20;95.80;;;;;;5111489;28;20024;-72
2022/04/28 04:00:53;;;;;;;12.13;8.60;;;9.20;95.70;;;;;;5111556;28;20027;-72
2022/04/28 04:03:20;;;;;;;11.85;8.43;;;9.20;95.60;;;;;;5111743;28;20028;-74
2022/04/28 04:05:47;;;;;;;11.48;8.73;;;9.20;95.70;;;;;;5110855;28;20123;-72
2022/04/28 04:08:13;;;;;;;10.93;8.60;;;9.20;95.90;;;;;;5111501;28;20023;-72
2022/04/28 04:10:39;;;;;;;11.85;8.10;;;9.20;96.00;;;;;;5110065;28;20027;-72
2022/04/28 04:13:04;;;;;;;12.43;9.32;;;9.20;96.00;;;;;;5113334;28;20486;-72
2022/04/28 04:15:30;;;;;;;12.27;8.32;;;9.20;96.00;;;;;;5114574;28;20119;-72
2022/04/28 04:17:56;;;;;;;9.77;8.40;;;9.30;96.10;;;;;;5115141;28;20089;-72
2022/04/28 04:20:22;;;;;;;11.40;7.97;;;9.30;96.20;;;;;;5115365;28;20035;-72
2022/04/28 04:22:48;;;;;;;9.77;8.75;;;9.30;96.30;;;;;;5114929;28;20030;-71
2022/04/28 04:25:14;;;;;;;11.20;8.77;;;9.30;96.20;;;;;;5115262;28;20023;-72
2022/04/28 04:27:39;;;;;;;14.80;8.80;;;9.40;96.20;;;;;;5114861;28;20072;-73
2022/04/28 04:33:06;;;;;;;12.95;8.63;;;9.40;96.10;;;;;;5092619;28;20032;-71
2022/04/28 04:35:32;;;;;;;12.75;8.63;;;9.50;95.80;;;;;;5109652;28;20079;-71
2022/04/28 04:37:58;;;;;;;12.75;8.50;;;9.50;95.60;;;;;;5115088;28;20020;-72
2022/04/28 04:40:23;;;;;;;10.57;8.65;;;9.60;95.70;;;;;;5115307;28;20120;-72
2022/04/28 04:42:49;;;;;;;12.95;8.60;;;9.70;95.50;;;;;;5114446;28;20494;-74
2022/04/28 04:45:15;;;;;;;14.40;8.63;;;9.80;95.20;;;;;;5114360;28;20051;-72
2022/04/28 04:47:40;;;;;;;10.77;8.95;;;9.90;95.10;;;;;;5112458;28;20058;-72
2022/04/28 04:50:08;;;;;;;12.32;8.65;;;10.00;94.80;;;;;;5114412;28;20027;-72
2022/04/28 04:52:34;;;;;;;10.85;8.40;;;10.20;94.30;;;;;;5114146;28;20026;-72
2022/04/28 04:55:00;;;;;;;14.77;8.40;;;10.20;93.60;;;;;;5114098;28;20455;-73
2022/04/28 04:57:26;;;;;;;10.02;8.48;;;10.30;93.00;;;;;;5114487;28;20050;-73
2022/04/28 04:59:53;;;;;;;9.25;7.65;;;10.40;92.40;;;;;;5113050;28;20051;-73
2022/04/28 05:02:19;;;;;;;11.40;8.27;;;10.50;91.30;;;;;;5114325;28;20388;-73
2022/04/28 05:04:45;;;;;;;9.73;8.25;;;10.60;90.70;;;;;;5113946;28;20376;-72
2022/04/28 05:07:10;;;;;;;11.02;8.05;;;10.70;90.40;;;;;;5114358;28;20024;-72
2022/04/28 05:09:37;;;;;;;15.82;9.32;;;10.70;90.30;;;;;;5106014;28;20034;-71
2022/04/28 05:12:06;;;;;;;13.43;8.93;;;10.80;90.00;;;;;;5114451;28;20023;-73
2022/04/28 05:14:33;;;;;;;14.32;8.20;;;10.80;89.50;;;;;;5114218;28;20473;-73
2022/04/28 05:16:59;;;;;;;14.23;8.55;;;10.90;90.10;;;;;;5113514;28;20023;-73
2022/04/28 05:19:26;;;;;;;17.25;8.60;;;11.00;90.10;;;;;;5114453;28;20040;-71
2022/04/28 05:22:10;;;;;;;13.13;9.55;;;11.00;90.00;;;;;;5113204;28;20026;-72
2022/04/28 05:24:36;;;;;;;11.70;8.57;;;11.10;89.30;;;;;;5113379;28;20062;-72
2022/04/28 05:27:01;;;;;;;14.85;8.57;;;11.10;88.70;;;;;;5114330;28;20055;-73
2022/04/28 05:29:27;;;;;;;13.73;8.55;;;11.20;88.10;;;;;;5113624;28;20108;-73
2022/04/28 05:31:53;;;;;;;13.30;8.25;;;11.30;88.40;;;;;;5113131;28;20023;-73
2022/04/28 05:34:18;;;;;;;10.15;7.65;;;11.50;88.00;;;;;;5114058;28;20031;-73
2022/04/28 05:36:45;;;;;;;10.93;8.23;;;11.60;87.00;;;;;;5113533;28;20150;-71
2022/04/28 05:39:11;;;;;;;14.20;8.88;;;11.90;86.50;;;;;;5113715;28;20032;-73
2022/04/28 05:41:37;;;;;;;10.40;8.60;;;12.10;85.20;;;;;;5113259;28;20020;-72
2022/04/28 05:46:50;;;;;;;14.65;7.95;;;12.60;82.60;;;;;;5112959;28;20123;-72
2022/04/28 05:49:16;;;;;;;12.43;8.00;;;12.90;81.70;;;;;;5113612;28;20035;-72
2022/04/28 05:51:42;;;;;;;11.57;7.72;;;13.20;78.80;;;;;;5112552;28;20026;-71
2022/04/28 05:54:07;;;;;;;10.02;7.50;;;13.60;77.50;;;;;;5113424;28;20076;-72
2022/04/28 05:56:33;;;;;;;10.05;7.45;;;14.10;74.90;;;;;;5113544;28;20051;-71
2022/04/28 05:58:59;;;;;;;9.20;7.40;;;15.00;66.00;;;;;;5113342;28;20031;-72
2022/04/28 06:01:24;;;;;;;7.78;6.40;;;16.30;63.00;;;;;;5113758;28;20069;-72
2022/04/28 06:03:50;;;;;;;9.15;6.07;;;17.30;56.70;;;;;;5112698;28;20024;-72
2022/04/28 06:06:15;;;;;;;8.43;6.00;;;18.00;52.40;;;;;;5113382;28;20016;-72
2022/04/28 06:08:41;;;;;;;10.30;6.47;;;18.70;50.60;;;;;;5113102;28;20400;-72
2022/04/28 06:11:07;;;;;;;8.77;6.35;;;19.10;48.10;;;;;;5113308;28;20164;-72
2022/04/28 06:13:32;;;;;;;9.25;6.15;;;18.90;46.90;;;;;;5112991;28;20464;-72
2022/04/28 06:15:58;;;;;;;7.28;5.90;;;18.40;47.50;;;;;;5112201;28;20361;-74
2022/04/28 06:18:26;;;;;;;7.60;6.05;;;18.20;48.20;;;;;;5112927;28;20425;-71
2022/04/28 06:21:10;;;;;;;9.60;5.97;;;18.10;47.80;;;;;;5112385;28;20036;-72
2022/04/28 06:23:36;;;;;;;8.63;6.38;;;18.10;48.10;;;;;;5113251;27;20035;-72
2022/04/28 06:26:03;;;;;;;6.88;5.85;;;18.30;48.10;;;;;;5091664;28;20048;-73
2022/04/28 06:28:28;;;;;;;7.05;5.70;;;18.30;48.30;;;;;;5092412;28;20031;-72
2022/04/28 06:30:54;;;;;;;9.00;6.05;;;18.30;45.70;;;;;;5092074;28;20032;-72
2022/04/28 06:33:20;;;;;;;9.75;5.97;;;18.40;46.20;;;;;;5092704;28;20344;-72
2022/04/28 06:35:46;;;;;;;7.78;5.75;;;18.40;45.70;;;;;;5090894;28;20473;-72
2022/04/28 06:38:12;;;;;;;9.45;6.25;;;18.60;46.50;;;;;;5092161;28;20047;-73
2022/04/28 06:40:38;;;;;;;7.60;6.72;;;18.60;45.50;;;;;;5091877;28;20032;-73
2022/04/28 06:43:04;;;;;;;9.60;6.32;;;18.80;45.60;;;;;;5091684;28;20032;-72
2022/04/28 06:45:30;;;;;;;7.80;5.32;;;19.40;45.40;;;;;;5091407;28;20499;-72
2022/04/28 06:47:55;;;;;;;9.05;5.70;;;20.10;43.00;;;;;;5091376;28;20103;-72
2022/04/28 06:50:21;;;;;;;7.55;5.45;;;20.30;42.40;;;;;;5092062;28;20111;-73
2022/04/28 06:52:47;;;;;;;6.03;5.40;;;20.70;42.10;;;;;;5091592;28;20028;-71
2022/04/28 06:55:12;;;;;;;7.00;5.57;;;21.40;41.90;;;;;;5091884;28;20028;-72
2022/04/28 06:57:39;;;;;;;10.15;5.55;;;22.20;39.80;;;;;;5091557;28;20415;-71
2022/04/28 07:00:07;;;;;;;11.95;5.95;;;22.00;38.90;;;;;;5091414;28;20031;-73
2022/04/28 07:02:33;;;;;;;8.82;5.72;;;21.20;38.80;;;;;;5091810;28;20024;-72
2022/04/28 07:04:59;;;;;;;9.18;5.20;;;21.00;40.40;;;;;;5091241;28;20035;-71
2022/04/28 07:07:25;;;;;;;8.02;5.43;;;21.10;40.70;;;;;;5092010;28;20367;-72
2022/04/28 07:09:50;;;;;;;8.57;5.53;;;21.20;40.60;;;;;;5090834;28;20054;-71
2022/04/28 07:12:16;;;;;;;7.95;5.25;;;21.50;40.40;;;;;;5091294;28;20457;-72
2022/04/28 07:14:43;;;;;;;5.97;5.38;;;22.80;38.10;;;;;;5091266;28;20059;-72
2022/04/28 07:17:09;;;;;;;9.95;6.80;;;24.50;37.10;;;;;;5091650;28;20026;-72
2022/04/28 07:19:35;;;;;;;7.95;5.75;;;25.60;34.40;;;;;;5091292;28;20032;-72
2022/04/28 07:22:03;;;;;;;8.25;5.72;;;25.60;34.40;;;;;;5090689;28;20257;-73
2022/04/28 07:24:29;;;;;;;7.40;5.82;;;26.80;33.40;;;;;;5091583;28;20028;-72
2022/04/28 07:26:55;;;;;;;7.38;5.53;;;27.00;32.20;;;;;;5091186;28;20103;-73
2022/04/28 07:29:21;;;;;;;6.43;5.45;;;27.40;30.80;;;;;;5091711;28;20483;-72
2022/04/28 07:31:47;;;;;;;7.55;5.55;;;27.80;30.00;;;;;;5090758;28;20028;-72
2022/04/28 07:34:13;;;;;;;8.35;5.60;;;28.20;29.70;;;;;;5091541;28;20024;-72
2022/04/28 07:36:38;;;;;;;6.80;5.18;;;28.40;29.60;;;;;;5091201;28;20021;-72
2022/04/28 07:39:04;;;;;;;6.60;5.90;;;29.20;30.00;;;;;;5090816;28;20081;-72
2022/04/28 07:41:30;;;;;;;8.75;7.65;;;29.30;29.00;;;;;;5091497;28;20028;-72
2022/04/28 07:43:55;;;;;;;7.72;5.82;;;30.20;29.30;;;;;;5090555;28;20049;-73
2022/04/28 07:46:21;;;;;;;7.70;5.55;;;30.70;28.60;;;;;;5091217;28;20085;-73
2022/04/28 07:48:47;;;;;;;6.47;5.25;;;30.60;27.90;;;;;;5093856;28;20518;-72
2022/04/28 07:51:12;;;;;;;8.38;5.85;;;30.90;27.90;;;;;;5095531;28;20073;-72
2022/04/28 07:53:38;;;;;;;6.25;5.65;;;31.20;27.60;;;;;;5095493;28;20103;-73
2022/04/28 07:56:10;;;;;;;8.65;6.28;;;31.20;27.40;;;;;;5094635;28;20020;-73
2022/04/28 07:58:37;;;;;;;8.50;5.65;;;31.30;27.50;;;;;;5095146;28;20027;-73
2022/04/28 08:01:06;;;;;;;6.80;5.80;;;31.40;27.30;;;;;;5094508;28;20032;-71
2022/04/28 08:03:32;;;;;;;8.77;6.30;;;31.80;27.10;;;;;;5095167;28;20090;-73
2022/04/28 08:05:58;;;;;;;8.88;6.38;;;31.20;26.60;;;;;;5094323;28;20456;-72
2022/04/28 08:08:23;;;;;;;7.00;6.22;;;31.00;26.90;;;;;;5094656;28;20020;-72
2022/04/28 08:10:49;;;;;;;8.52;6.90;;;30.70;28.00;;;;;;5094489;28;20060;-73
2022/04/28 08:13:16;;;;;;;10.27;6.07;;;31.00;27.80;;;;;;5094948;28;20122;-73
2022/04/28 08:15:42;;;;;;;8.25;6.25;;;30.70;27.40;;;;;;5094467;28;20097;-72
2022/04/28 08:18:08;;;;;;;7.55;6.32;;;30.00;28.20;;;;;;5095377;28;20032;-72
2022/04/28 08:20:33;;;;;;;7.35;5.95;;;29.90;28.80;;;;;;5095007;28;20028;-71
2022/04/28 08:22:59;;;;;;;8.50;6.75;;;29.40;29.00;;;;;;5094239;28;20028;-72
2022/04/28 08:25:25;;;;;;;9.20;6.32;;;28.80;29.00;;;;;;5095053;28;20103;-72
2022/04/28 08:27:50;;;;;;;10.48;7.70;;;28.40;29.60;;;;;;5093780;28;20484;-72
2022/04/28 08:30:16;;;;;;;8.75;6.47;;;28.10;29.60;;;;;;5094533;28;20035;-72
2022/04/28 08:32:42;;;;;;;7.35;6.65;;;28.00;30.00;;;;;;5094727;28;20016;-72
2022/04/28 08:35:08;;;;;;;13.40;6.78;;;27.30;30.80;;;;;;5094244;28;20059;-72
2022/04/28 08:37:36;;;;;;;8.23;6.75;;;26.60;31.70;;;;;;5109577;28;20377;-72
2022/04/28 08:40:02;;;;;;;8.63;7.18;;;26.00;31.50;;;;;;5093824;28;20040;-72
2022/04/28 08:42:30;;;;;;;10.68;7.45;;;25.20;32.10;;;;;;5094680;28;20098;-73
2022/04/28 08:44:59;;;;;;;9.13;7.72;;;24.90;33.00;;;;;;5093781;28;20089;-72
2022/04/28 08:47:25;;;;;;;9.77;7.60;;;24.20;34.40;;;;;;5094207;28;20107;-73
2022/04/28 08:49:51;;;;;;;9.10;7.47;;;23.50;35.80;;;;;;5093568;28;20115;-72
2022/04/28 08:52:36;;;;;;;14.52;7.43;;;23.10;36.00;;;;;;5094134;28;20085;-72
2022/04/28 08:55:02;;;;;;;9.23;7.93;;;22.70;36.60;;;;;;5093492;28;20510;-72
2022/04/28 08:57:28;;;;;;;8.18;7.32;;;22.50;36.80;;;;;;5092592;28;20511;-73
2022/04/28 08:59:55;;;;;;;9.85;8.15;;;22.20;37.00;;;;;;5092702;28;20443;-73
2022/04/28 09:02:29;;;;;;;10.13;8.20;;;21.70;38.50;;;;;;5093825;28;20038;-72
2022/04/28 09:05:02;;;;;;;9.85;7.88;;;21.30;39.10;;;;;;5093669;28;20028;-71
2022/04/28 09:07:35;;;;;;;13.75;7.40;;;21.00;39.50;;;;;;5094067;28;20074;-72
2022/04/28 09:10:27;;;;;;;10.88;8.18;;;20.80;40.40;;;;;;5093426;28;20024;-71
2022/04/28 09:12:56;;;;;;;;;;;20.50;40.90;;;;;;5093922;28;20051;-73
2022/04/28 09:15:22;;;;;;;9.30;7.50;;;20.50;42.30;;;;;;5093555;28;19916;-72
2022/04/28 09:17:48;;;;;;;13.38;7.18;;;20.60;41.60;;;;;;5093240;28;20027;-72
2022/04/28 09:20:13;;;;;;;9.98;7.25;;;20.70;40.40;;;;;;5093711;28;20042;-72
2022/04/28 09:22:43;;;;;;;8.77;7.40;;;20.70;38.40;;;;;;5093807;28;20107;-72
2022/04/28 09:25:10;;;;;;;9.50;6.35;;;20.60;39.60;;;;;;5093053;28;20453;-71
2022/04/28 09:27:36;;;;;;;7.10;6.40;;;20.70;39.50;;;;;;5093688;28;20024;-72
2022/04/28 09:30:02;;;;;;;8.13;7.05;;;20.60;37.90;;;;;;5093020;28;20054;-73
2022/04/28 09:32:28;;;;;;;10.57;7.07;;;20.60;37.70;;;;;;5093763;28;20465;-72
2022/04/28 09:34:55;;;;;;;11.15;7.30;;;20.60;37.60;;;;;;5092867;28;20035;-72
2022/04/28 09:37:22;;;;;;;11.43;6.68;;;20.60;38.20;;;;;;5093458;28;20104;-73
2022/04/28 09:42:40;;;;;;;10.52;5.22;;;20.80;37.60;;;;;;5093364;28;20132;-72
2022/04/28 09:45:08;;;;;;;7.95;5.20;;;20.60;36.00;;;;;;5108257;28;20063;-72
2022/04/28 09:47:35;;;;;;;6.15;4.72;;;20.50;35.00;;;;;;5093234;28;20047;-73
2022/04/28 09:50:01;;;;;;;6.60;4.25;;;20.50;35.40;;;;;;5092418;28;20036;-71
2022/04/28 09:52:26;;;;;;;8.13;5.88;;;20.50;32.80;;;;;;5093130;28;20020;-72
2022/04/28 09:54:56;;;;;;;6.72;4.85;;;20.50;34.50;;;;;;5092076;28;20020;-72
2022/04/28 09:57:23;;;;;;;7.65;3.90;;;20.60;35.80;;;;;;5093016;28;20099;-74
2022/04/28 09:59:53;;;;;;;7.85;4.22;;;20.60;32.40;;;;;;5091970;28;20370;-72
2022/04/28 10:02:20;;;;;;;9.00;4.88;;;20.50;32.70;;;;;;5093074;28;20070;-73
2022/04/28 10:04:47;;;;;;;5.20;4.28;;;20.60;32.00;;;;;;5092531;28;20016;-73
2022/04/28 10:07:16;;;;;;;6.90;4.00;;;20.60;31.80;;;;;;5091879;28;20504;-73
2022/04/28 10:09:47;;;;;;;4.65;3.15;;;20.70;31.60;;;;;;5092362;28;20490;-72
2022/04/28 10:12:25;;;;;;;10.10;3.38;;;20.70;30.30;;;;;;5092086;28;20024;-73
2022/04/28 10:14:53;;;;;;;5.78;3.70;;;20.70;30.30;;;;;;5092297;28;20044;-72
2022/04/28 10:17:41;;;;;;;4.30;3.90;;;20.60;30.00;;;;;;5092706;28;20024;-73
2022/04/28 10:20:23;;;;;;;6.55;4.18;;;20.60;31.70;;;;;;5092031;28;20380;-72
2022/04/28 10:22:50;;;;;;;7.03;4.07;;;20.60;33.80;;;;;;5092659;28;20032;-72
2022/04/28 10:33:44;;;;;;;4.65;3.75;;;20.70;32.10;;;;;;5092237;28;20039;-73
2022/04/28 10:36:21;;;;;;;7.60;3.97;;;20.80;32.40;;;;;;5091516;28;20027;-73
2022/04/28 10:39:13;;;;;;;3.70;3.15;;;20.70;31.20;;;;;;5092454;28;20035;-72
2022/04/28 10:41:38;;;;;;;5.78;3.30;;;20.70;31.60;;;;;;5089925;28;20052;-73
2022/04/28 10:44:17;;;;;;;5.50;3.72;;;20.50;31.50;;;;;;5091517;28;20035;-72
2022/04/28 10:46:59;;;;;;;4.82;3.95;;;20.50;31.30;;;;;;5091999;28;20035;-73
2022/04/28 10:49:25;;;;;;;5.38;4.05;;;20.30;32.20;;;;;;5092224;28;20153;-73
2022/04/28 10:51:57;;;;;;;5.38;4.80;;;20.30;32.80;;;;;;5091851;28;20116;-73
2022/04/28 10:54:24;;;;;;;7.90;5.95;;;20.30;35.40;;;;;;5092035;28;20028;-73
2022/04/28 10:56:56;;;;;;;8.57;6.15;;;20.00;39.00;;;;;;5091682;28;20039;-73
2022/04/28 10:59:34;;;;;;;5.82;4.78;;;19.80;39.10;;;;;;5091247;28;20542;-73
2022/04/28 11:02:15;;;;;;;8.25;6.00;;;19.80;39.50;;;;;;5091341;28;20036;-71
2022/04/28 11:04:49;;;;;;;7.13;5.80;;;19.60;39.00;;;;;;5091676;28;20453;-73
2022/04/28 11:07:20;;;;;;;8.55;5.70;;;19.40;39.60;;;;;;5091276;28;20028;-73
2022/04/28 11:10:07;;;;;;;8.60;5.60;;;19.10;39.30;;;;;;5091916;28;20161;-73
2022/04/28 11:12:38;;;;;;;8.70;5.57;;;19.00;39.60;;;;;;5091749;28;20028;-73
2022/04/28 11:15:08;;;;;;;7.53;4.88;;;19.00;40.40;;;;;;5091245;28;20044;-72
2022/04/28 11:17:38;;;;;;;6.73;4.80;;;19.10;41.00;;;;;;5091826;28;20193;-72
2022/04/28 11:20:09;;;;;;;8.43;5.70;;;19.10;40.20;;;;;;5091005;28;20036;-72
2022/04/28 11:22:35;;;;;;;8.00;4.97;;;19.10;39.40;;;;;;5096870;28;20429;-72
2022/04/28 11:25:10;;;;;;;7.57;4.78;;;19.20;40.00;;;;;;5097623;28;20024;-72
2022/04/28 11:27:37;;;;;;;5.32;4.60;;;19.20;41.30;;;;;;5098399;28;20124;-72
2022/04/28 11:30:03;;;;;;;5.85;4.80;;;19.20;40.90;;;;;;5097401;28;20024;-72
2022/04/28 11:32:29;;;;;;;5.80;4.75;;;19.20;39.60;;;;;;5098330;28;20476;-73
2022/04/28 11:34:58;;;;;;;7.63;4.70;;;19.20;40.20;;;;;;5098055;28;20039;-73
2022/04/28 11:37:28;;;;;;;7.30;5.25;;;19.20;40.40;;;;;;5098199;28;20495;-72
2022/04/28 11:39:57;;;;;;;11.18;4.68;;;19.20;40.90;;;;;;5098430;28;20077;-72
2022/04/28 11:42:25;;;;;;;8.30;4.53;;;19.10;38.30;;;;;;5098507;28;20032;-72
2022/04/28 11:44:59;;;;;;;9.48;4.43;;;19.20;38.30;;;;;;5096733;28;20434;-72
2022/04/28 11:47:26;;;;;;;7.03;4.63;;;19.20;38.40;;;;;;5098041;28;20020;-72
2022/04/28 11:50:03;;;;;;;5.38;4.03;;;19.20;38.40;;;;;;5098252;28;20054;-73
2022/04/28 11:52:32;;;;;;;9.30;4.78;;;19.30;38.60;;;;;;5098409;28;20020;-72
2022/04/28 11:55:05;;;;;;;6.20;4.05;;;19.20;37.30;;;;;;5097187;28;20020;-72
2022/04/28 11:57:32;;;;;;;6.40;3.63;;;19.30;36.30;;;;;;5098290;28;20088;-72
2022/04/28 11:59:59;;;;;;;7.60;3.15;;;19.30;36.00;;;;;;5097522;28;20453;-72
2022/04/28 12:02:35;;;;;;;8.38;4.18;;;19.30;35.90;;;;;;5098169;28;20035;-72
2022/04/28 12:05:15;;;;;;;6.85;3.72;;;19.30;35.20;;;;;;5097382;28;20059;-72
2022/04/28 12:07:50;;;;;;;5.63;3.80;;;19.30;34.90;;;;;;5098272;28;20024;-72
2022/04/28 12:15:58;;;;;;;6.70;3.67;;;19.10;34.70;;;;;;5098078;28;20381;-72
2022/04/28 12:21:35;;;;;;;7.03;3.35;;;19.00;35.40;;;;;;5097189;28;20401;-72
2022/04/28 12:24:08;;;;;;;5.90;3.78;;;19.10;35.70;;;;;;5091782;28;20392;-72
2022/04/28 12:26:36;;;;;;;9.75;3.83;;;19.00;36.10;;;;;;5097725;28;20056;-73
2022/04/28 12:29:16;;;;;;;7.88;3.40;;;19.00;35.40;;;;;;5097195;28;20051;-72
2022/04/28 12:31:42;;;;;;;5.43;4.03;;;18.90;36.10;;;;;;5097934;28;20024;-73
2022/04/28 12:34:13;;;;;;;7.65;3.90;;;18.90;36.30;;;;;;5093557;28;20031;-72
2022/04/28 12:36:57;;;;;;;10.75;3.92;;;18.80;36.40;;;;;;5092314;28;20050;-72
2022/04/28 12:39:23;;;;;;;6.25;4.05;;;18.80;36.80;;;;;;5093717;28;20073;-72
2022/04/28 12:41:50;;;;;;;4.70;4.15;;;18.80;37.40;;;;;;5094348;28;20365;-72
2022/04/28 12:44:16;;;;;;;5.03;3.83;;;18.70;37.60;;;;;;5093652;28;20085;-73
2022/04/28 12:46:45;;;;;;;7.13;2.88;;;18.70;37.50;;;;;;5094306;28;20023;-72
2022/04/28 12:49:13;;;;;;;7.45;3.30;;;18.70;36.50;;;;;;5093846;28;20020;-73
2022/04/28 12:51:44;;;;;;;5.20;3.15;;;18.70;35.90;;;;;;5094233;28;20028;-73
2022/04/28 12:54:20;;;;;;;5.20;3.10;;;18.70;35.60;;;;;;5093674;28;20077;-73
2022/04/28 12:56:52;;;;;;;5.32;3.13;;;18.80;35.70;;;;;;5094097;28;20432;-73
2022/04/28 12:59:18;;;;;;;5.50;3.40;;;18.80;35.50;;;;;;5093821;28;20036;-73
2022/04/28 13:01:46;;;;;;;6.55;3.35;;;18.80;37.10;;;;;;5094054;28;20028;-72
2022/04/28 13:04:22;;;;;;;5.32;3.38;;;18.80;36.60;;;;;;5093343;28;20028;-72
2022/04/28 13:06:49;;;;;;;7.28;3.30;;;18.80;36.30;;;;;;5094297;28;20047;-73
2022/04/28 13:09:15;;;;;;;4.85;3.33;;;18.80;35.90;;;;;;5093365;28;20039;-72
2022/04/28 13:11:44;;;;;;;3.85;3.20;;;18.80;36.20;;;;;;5093954;28;20116;-72
2022/04/28 13:14:12;;;;;;;4.75;3.33;;;18.80;35.70;;;;;;5093430;28;20051;-71
2022/04/28 13:16:39;;;;;;;4.13;2.88;;;18.70;36.00;;;;;;5093979;28;20047;-72
2022/04/28 13:19:06;;;;;;;8.30;3.10;;;18.70;36.10;;;;;;5093618;28;20024;-71
2022/04/28 13:21:32;;;;;;;4.47;2.92;;;18.70;36.20;;;;;;5093694;28;20059;-73
2022/04/28 13:23:58;;;;;;;5.88;3.30;;;18.70;36.10;;;;;;5093777;28;20024;-72
2022/04/28 13:26:26;;;;;;;6.28;3.38;;;18.70;36.30;;;;;;5093232;28;20024;-73